createdAt,value
2022-09-15T00:01:20.515Z,98828.84
2022-09-15T00:04:21.972Z,98823.75
2022-09-15T00:07:24.152Z,98832.19
2022-09-15T00:10:26.815Z,98833.56
2022-09-15T00:13:28.303Z,98836.22
2022-09-15T00:16:31.705Z,98844.50
2022-09-15T00:19:33.280Z,98839.09
2022-09-15T00:22:35.261Z,98844.19
2022-09-15T00:25:41.533Z,98849.97
2022-09-15T00:28:43.644Z,98844.28
2022-09-15T00:31:45.177Z,98840.84
2022-09-15T00:34:46.587Z,98848.09
2022-09-15T00:37:47.984Z,98850.41
2022-09-15T00:40:52.830Z,98851.00
2022-09-15T00:43:57.894Z,98846.25
2022-09-15T00:47:18.192Z,98842.59
2022-09-15T00:50:20.945Z,98850.66
2022-09-15T00:53:24.812Z,98834.38
2022-09-15T00:56:27.008Z,98840.16
2022-09-15T00:59:31.680Z,98844.13
2022-09-15T01:02:35.768Z,98840.47
2022-09-15T01:05:46.276Z,98841.88
2022-09-15T01:09:03.421Z,98843.34
2022-09-15T01:12:05.662Z,98839.31
2022-09-15T01:15:08.338Z,98846.38
2022-09-15T01:18:24.660Z,98838.06
2022-09-15T01:21:48.069Z,98836.56
2022-09-15T01:25:20.541Z,98833.09
2022-09-15T01:28:47.081Z,98826.34
2022-09-15T01:32:25.336Z,98826.34
2022-09-15T01:35:34.540Z,98819.22
2022-09-15T01:38:51.776Z,98817.88
2022-09-15T01:41:58.878Z,98810.19
2022-09-15T01:45:15.256Z,98797.06
2022-09-15T01:48:24.527Z,98803.97
2022-09-15T01:51:28.345Z,98803.97
2022-09-15T01:54:35.884Z,98796.38
2022-09-15T01:57:37.325Z,98800.88
2022-09-15T02:00:43.820Z,98810.78
2022-09-15T02:03:57.824Z,98804.31
2022-09-15T02:07:11.525Z,98806.97
2022-09-15T02:10:26.882Z,98795.44
2022-09-15T02:14:10.462Z,98791.06
2022-09-15T02:17:14.879Z,98792.31
2022-09-15T02:20:33.237Z,98797.88
2022-09-15T02:23:40.627Z,98799.72
2022-09-15T02:26:43.188Z,98788.63
2022-09-15T02:29:47.738Z,98796.13
2022-09-15T02:32:56.130Z,98803.63
2022-09-15T02:35:58.597Z,98791.84
2022-09-15T02:39:05.497Z,98803.03
2022-09-15T02:42:07.387Z,98804.53
2022-09-15T02:45:09.325Z,98805.84
2022-09-15T02:48:10.757Z,98804.09
2022-09-15T02:51:12.309Z,98806.84
2022-09-15T02:54:13.757Z,98805.25
2022-09-15T02:57:15.267Z,98799.94
2022-09-15T03:00:19.016Z,98803.50
2022-09-15T03:03:21.969Z,98812.97
2022-09-15T03:06:23.961Z,98814.81
2022-09-15T03:09:25.291Z,98808.47
2022-09-15T03:12:26.689Z,98815.88
2022-09-15T03:15:28.143Z,98815.41
2022-09-15T03:18:30.400Z,98811.25
2022-09-15T03:21:31.819Z,98821.03
2022-09-15T03:24:33.669Z,98809.63
2022-09-15T03:27:35.468Z,98822.78
2022-09-15T03:30:36.902Z,98826.13
2022-09-15T03:33:38.724Z,98825.44
2022-09-15T03:36:41.151Z,98823.00
2022-09-15T03:39:42.553Z,98831.41
2022-09-15T03:42:43.955Z,98827.16
2022-09-15T03:45:45.457Z,98827.59
2022-09-15T03:48:49.738Z,98817.34
2022-09-15T03:51:51.600Z,98819.78
2022-09-15T03:54:53.005Z,98825.53
2022-09-15T03:57:54.871Z,98824.63
2022-09-15T04:00:56.929Z,98823.47
2022-09-15T04:03:58.768Z,98818.59
2022-09-15T04:07:00.241Z,98818.84
2022-09-15T04:10:01.965Z,98819.88
2022-09-15T04:13:03.379Z,98829.84
2022-09-15T04:16:09.769Z,98829.53
2022-09-15T04:19:11.703Z,98825.88
2022-09-15T04:22:17.558Z,98818.06
2022-09-15T04:25:19.337Z,98817.25
2022-09-15T04:28:20.744Z,98817.34
2022-09-15T04:31:22.359Z,98815.50
2022-09-15T04:34:24.594Z,98818.59
2022-09-15T04:37:26.073Z,98808.69
2022-09-15T04:40:27.547Z,98810.38
2022-09-15T04:43:28.984Z,98807.56
2022-09-15T04:46:30.959Z,98806.66
2022-09-15T04:49:32.444Z,98803.84
2022-09-15T04:52:33.836Z,98806.72
2022-09-15T04:55:35.885Z,98806.16
2022-09-15T04:58:38.400Z,98813.56
2022-09-15T05:01:40.182Z,98823.38
2022-09-15T05:04:41.611Z,98815.72
2022-09-15T05:07:43.008Z,98826.13
2022-09-15T05:10:44.496Z,98820.34
2022-09-15T05:13:46.192Z,98830.38
2022-09-15T05:16:47.607Z,98830.75
2022-09-15T05:19:49.145Z,98835.00
2022-09-15T05:22:50.534Z,98821.94
2022-09-15T05:25:59.786Z,98823.81
2022-09-15T05:29:01.264Z,98816.19
2022-09-15T05:32:02.678Z,98817.78
2022-09-15T05:35:06.384Z,98819.56
2022-09-15T05:38:07.789Z,98826.69
2022-09-15T05:41:15.969Z,98829.88
2022-09-15T05:44:17.532Z,98827.09
2022-09-15T05:47:19.038Z,98831.72
2022-09-15T05:50:20.620Z,98832.53
2022-09-15T05:53:23.246Z,98836.22
2022-09-15T05:56:24.660Z,98845.19
2022-09-15T05:59:26.067Z,98834.16
2022-09-15T06:02:27.491Z,98843.34
2022-09-15T06:05:29.321Z,98847.75
2022-09-15T06:08:50.035Z,98845.69
2022-09-15T06:11:54.442Z,98843.13
2022-09-15T06:14:56.649Z,98848.44
2022-09-15T06:17:58.403Z,98846.66
2022-09-15T06:21:10.955Z,98856.50
2022-09-15T06:24:12.521Z,98853.44
2022-09-15T06:27:13.909Z,98854.19
2022-09-15T06:30:15.898Z,98856.97
2022-09-15T06:33:17.313Z,98860.78
2022-09-15T06:36:20.971Z,98874.22
2022-09-15T06:39:22.363Z,98868.53
2022-09-15T06:42:23.800Z,98873.16
2022-09-15T06:45:25.221Z,98883.09
2022-09-15T06:48:26.690Z,98885.69
2022-09-15T06:51:31.290Z,98899.53
2022-09-15T06:54:32.772Z,98907.22
2022-09-15T06:57:34.275Z,98910.56
2022-09-15T07:00:35.702Z,98918.50
2022-09-15T07:03:38.968Z,98906.13
2022-09-15T07:06:40.490Z,98912.78
2022-09-15T07:09:43.467Z,98913.06
2022-09-15T07:12:47.444Z,98900.84
2022-09-15T07:16:00.197Z,98911.09
2022-09-15T07:19:03.586Z,98920.09
2022-09-15T07:22:05.316Z,98918.66
2022-09-15T07:25:06.935Z,98913.41
2022-09-15T07:28:08.333Z,98917.81
2022-09-15T07:31:13.182Z,98907.63
2022-09-15T07:34:14.675Z,98907.13
2022-09-15T07:37:16.201Z,98909.81
2022-09-15T07:40:18.704Z,98906.00
2022-09-15T07:43:20.327Z,98906.56
2022-09-15T07:46:23.732Z,98912.16
2022-09-15T07:49:25.208Z,98910.88
2022-09-15T07:52:26.628Z,98909.81
2022-09-15T07:55:28.224Z,98916.66
2022-09-15T07:58:29.843Z,98917.03
2022-09-15T08:01:31.298Z,98915.97
2022-09-15T08:04:32.808Z,98920.28
2022-09-15T08:07:34.241Z,98911.38
2022-09-15T08:10:39.882Z,98915.88
2022-09-15T08:13:41.327Z,98915.78
2022-09-15T08:16:42.776Z,98920.28
2022-09-15T08:19:44.264Z,98915.88
2022-09-15T08:22:46.155Z,98920.72
2022-09-15T08:25:47.786Z,98919.13
2022-09-15T08:28:49.220Z,98910.25
2022-09-15T08:31:50.667Z,98922.75
2022-09-15T08:34:52.116Z,98929.84
2022-09-15T08:37:55.118Z,98936.97
2022-09-15T08:41:04.385Z,98936.63
2022-09-15T08:44:08.723Z,98944.69
2022-09-15T08:47:17.559Z,98952.75
2022-09-15T08:50:27.360Z,98948.25
2022-09-15T08:53:34.413Z,98954.59
2022-09-15T08:56:37.053Z,98948.06
2022-09-15T08:59:39.925Z,98942.56
2022-09-15T09:02:58.094Z,98944.31
2022-09-15T09:06:26.279Z,98944.09
2022-09-15T09:09:36.557Z,98943.88
2022-09-15T09:12:55.301Z,98950.72
2022-09-15T09:16:04.528Z,98952.72
2022-09-15T09:19:43.766Z,98955.16
2022-09-15T09:22:48.563Z,98946.09
2022-09-15T09:25:50.858Z,98939.41
2022-09-15T09:29:00.598Z,98947.84
2022-09-15T09:32:03.436Z,98944.91
2022-09-15T09:35:24.134Z,98942.25
2022-09-15T09:38:30.651Z,98939.75
2022-09-15T09:41:36.402Z,98938.94
2022-09-15T09:44:40.328Z,98929.69
2022-09-15T09:47:42.800Z,98926.03
2022-09-15T09:50:44.603Z,98926.50
2022-09-15T09:53:53.811Z,98932.34
2022-09-15T09:57:16.695Z,98926.13
2022-09-15T10:00:39.681Z,98922.78
2022-09-15T10:03:43.213Z,98911.13
2022-09-15T10:06:45.125Z,98910.59
2022-09-15T10:09:58.565Z,98906.75
2022-09-15T10:13:03.008Z,98900.91
2022-09-15T10:16:06.559Z,98901.72
2022-09-15T10:19:13.998Z,98901.41
2022-09-15T10:22:36.178Z,98904.00
2022-09-15T10:29:15.803Z,98905.22
2022-09-15T10:32:25.545Z,98920.97
2022-09-15T10:35:32.728Z,98924.22
2022-09-15T10:38:56.156Z,98943.22
2022-09-15T10:42:25.322Z,98954.44
2022-09-15T10:45:33.938Z,98987.00
2022-09-15T10:48:43.914Z,99007.94
2022-09-15T10:52:01.338Z,99006.50
2022-09-15T10:55:51.086Z,99022.97
2022-09-15T10:59:04.533Z,99020.31
2022-09-15T11:02:24.820Z,99024.78
2022-09-15T11:05:37.492Z,99037.38
2022-09-15T11:09:00.781Z,99039.81
2022-09-15T11:12:20.040Z,99036.78
2022-09-15T11:15:38.037Z,99046.34
2022-09-15T11:19:04.356Z,99059.72
2022-09-15T11:22:14.431Z,99060.34
2022-09-15T11:25:19.142Z,99067.66
2022-09-15T11:28:28.176Z,99066.22
2022-09-15T11:31:42.026Z,99066.03
2022-09-15T11:34:55.093Z,99066.03
2022-09-15T11:38:03.280Z,99067.41
2022-09-15T11:41:23.421Z,99077.78
2022-09-15T11:44:32.838Z,99086.72
2022-09-15T11:47:42.488Z,99093.22
2022-09-15T11:50:48.982Z,99094.06
2022-09-15T11:54:00.520Z,99097.31
2022-09-15T11:57:02.018Z,99097.41
2022-09-15T12:00:06.997Z,99114.81
2022-09-15T12:03:32.518Z,99114.81
2022-09-15T12:06:54.191Z,99113.16
2022-09-15T12:10:03.754Z,99122.09
2022-09-15T12:13:05.764Z,99123.66
2022-09-15T12:16:08.268Z,99132.88
2022-09-15T12:19:40.107Z,99128.38
2022-09-15T12:22:49.432Z,99133.22
2022-09-15T12:26:14.248Z,99128.19
2022-09-15T12:29:21.737Z,99138.34
2022-09-15T12:32:34.789Z,99141.22
2022-09-15T12:35:36.441Z,99143.13
2022-09-15T12:38:37.846Z,99141.00
2022-09-15T12:42:01.167Z,99149.78
2022-09-15T12:45:24.326Z,99148.91
2022-09-15T12:48:32.461Z,99148.84
2022-09-15T12:51:33.864Z,99154.19
2022-09-15T12:54:37.662Z,99159.69
2022-09-15T12:57:39.057Z,99154.31
2022-09-15T13:01:06.842Z,99154.56
2022-09-15T13:04:05.668Z,99157.44
2022-09-15T13:07:16.096Z,99156.84
2022-09-15T13:10:34.575Z,99157.28
2022-09-15T13:13:43.904Z,99156.66
2022-09-15T13:16:54.745Z,99154.56
2022-09-15T13:20:01.997Z,99151.31
2022-09-15T13:23:08.499Z,99148.84
2022-09-15T13:26:17.693Z,99151.56
2022-09-15T13:29:21.010Z,99147.22
2022-09-15T13:32:34.457Z,99143.72
2022-09-15T13:35:56.733Z,99142.19
2022-09-15T13:39:01.166Z,99141.31
2022-09-15T13:42:28.707Z,99134.97
2022-09-15T13:46:11.985Z,99141.41
2022-09-15T13:49:38.407Z,99138.41
2022-09-15T13:53:06.064Z,99133.91
2022-09-15T13:56:11.603Z,99129.34
2022-09-15T13:59:30.476Z,99126.31
2022-09-15T14:02:32.120Z,99122.47
2022-09-15T14:05:35.885Z,99117.22
2022-09-15T14:08:38.832Z,99116.41
2022-09-15T14:11:42.341Z,99110.09
2022-09-15T14:14:53.602Z,99106.50
2022-09-15T14:17:55.693Z,99113.63
2022-09-15T14:20:58.639Z,99116.28
2022-09-15T14:24:20.292Z,99106.91
2022-09-15T14:27:28.905Z,99111.03
2022-09-15T14:30:32.166Z,99105.75
2022-09-15T14:33:38.306Z,99108.03
2022-09-15T14:36:40.819Z,99105.44
2022-09-15T14:39:49.295Z,99105.03
2022-09-15T14:42:51.347Z,99103.69
2022-09-15T14:45:57.288Z,99103.19
2022-09-15T14:49:09.709Z,99105.38
2022-09-15T14:52:24.089Z,99116.94
2022-09-15T14:55:29.049Z,99103.38
2022-09-15T14:58:41.930Z,99099.19
2022-09-15T15:01:48.866Z,99099.19
2022-09-15T15:05:05.981Z,99095.72
2022-09-15T15:08:12.707Z,99101.56
2022-09-15T15:11:17.936Z,99099.50
2022-09-15T15:14:19.700Z,99099.84
2022-09-15T15:17:36.609Z,99102.63
2022-09-15T15:20:49.304Z,99106.28
2022-09-15T15:23:50.765Z,99110.59
2022-09-15T15:26:52.980Z,99102.31
2022-09-15T15:29:54.662Z,99095.72
2022-09-15T15:32:59.496Z,99094.72
2022-09-15T15:36:05.343Z,99092.50
2022-09-15T15:39:19.736Z,99095.72
2022-09-15T15:42:21.351Z,99090.59
2022-09-15T15:45:25.942Z,99093.38
2022-09-15T15:48:36.837Z,99095.06
2022-09-15T15:51:40.005Z,99093.59
2022-09-15T15:54:42.194Z,99094.47
2022-09-15T15:57:46.672Z,99093.09
2022-09-15T16:00:49.889Z,99099.06
2022-09-15T16:03:51.353Z,99092.66
2022-09-15T16:06:52.868Z,99095.91
2022-09-15T16:09:54.994Z,99107.41
2022-09-15T16:12:56.546Z,99099.94
2022-09-15T16:16:00.224Z,99105.16
2022-09-15T16:19:01.926Z,99109.44
2022-09-15T16:22:05.435Z,99111.88
2022-09-15T16:25:35.691Z,99105.75
2022-09-15T16:28:37.124Z,99119.47
2022-09-15T16:31:38.642Z,99117.25
2022-09-15T16:34:40.085Z,99136.09
2022-09-15T16:37:41.536Z,99128.16
2022-09-15T16:40:43.031Z,99135.38
2022-09-15T16:43:46.455Z,99134.19
2022-09-15T16:46:48.010Z,99133.44
2022-09-15T16:49:51.228Z,99134.50
2022-09-15T16:52:52.908Z,99132.88
2022-09-15T16:55:57.535Z,99138.72
2022-09-15T16:59:00.709Z,99143.66
2022-09-15T17:02:02.695Z,99143.38
2022-09-15T17:05:20.164Z,99143.72
2022-09-15T17:08:24.581Z,99144.31
2022-09-15T17:11:26.667Z,99151.66
2022-09-15T17:14:28.250Z,99155.19
2022-09-15T17:17:29.749Z,99151.88
2022-09-15T17:20:34.737Z,99144.53
2022-09-15T17:23:41.157Z,99147.00
2022-09-15T17:26:42.691Z,99148.91
2022-09-15T17:29:44.770Z,99141.41
2022-09-15T17:32:46.823Z,99146.84
2022-09-15T17:35:49.502Z,99144.03
2022-09-15T17:38:50.957Z,99144.16
2022-09-15T17:41:52.571Z,99143.13
2022-09-15T17:44:54.041Z,99140.75
2022-09-15T17:47:55.910Z,99135.09
2022-09-15T17:50:57.510Z,99148.56
2022-09-15T17:53:58.908Z,99142.88
2022-09-15T17:57:00.348Z,99142.88
2022-09-15T18:00:02.025Z,99143.72
2022-09-15T18:03:23.841Z,99152.97
2022-09-15T18:06:25.237Z,99150.47
2022-09-15T18:09:26.654Z,99149.41
2022-09-15T18:12:28.086Z,99156.09
2022-09-15T18:15:32.599Z,99160.38
2022-09-15T18:18:34.208Z,99161.13
2022-09-15T18:21:35.874Z,99164.97
2022-09-15T18:24:37.278Z,99170.94
2022-09-15T18:27:38.679Z,99177.09
2022-09-15T18:30:42.472Z,99181.59
2022-09-15T18:33:43.910Z,99179.28
2022-09-15T18:36:45.332Z,99189.09
2022-09-15T18:39:46.795Z,99198.09
2022-09-15T18:42:48.225Z,99198.97
2022-09-15T18:45:50.370Z,99199.28
2022-09-15T18:48:52.314Z,99201.53
2022-09-15T18:51:53.721Z,99203.19
2022-09-15T18:54:55.287Z,99202.34
2022-09-15T18:58:00.853Z,99211.31
2022-09-15T19:01:03.012Z,99211.56
2022-09-15T19:04:04.491Z,99214.38
2022-09-15T19:07:05.953Z,99216.38
2022-09-15T19:10:08.096Z,99210.28
2022-09-15T19:13:11.511Z,99215.41
2022-09-15T19:16:13.033Z,99213.97
2022-09-15T19:19:14.799Z,99225.22
2022-09-15T19:22:16.401Z,99220.28
2022-09-15T19:25:17.861Z,99222.50
2022-09-15T19:28:19.574Z,99220.72
2022-09-15T19:31:21.717Z,99223.97
2022-09-15T19:34:23.493Z,99219.47
2022-09-15T19:37:24.991Z,99226.66
2022-09-15T19:40:26.774Z,99230.69
2022-09-15T19:43:28.789Z,99235.19
2022-09-15T19:46:30.991Z,99228.44
2022-09-15T19:49:32.412Z,99237.03
2022-09-15T19:52:33.807Z,99239.28
2022-09-15T19:55:35.269Z,99238.03
2022-09-15T19:58:36.736Z,99238.28
2022-09-15T20:01:38.204Z,99239.47
2022-09-15T20:04:39.990Z,99244.41
2022-09-15T20:07:41.448Z,99240.16
2022-09-15T20:10:42.980Z,99242.38
2022-09-15T20:13:45.063Z,99236.91
2022-09-15T20:16:46.426Z,99239.94
2022-09-15T20:19:47.950Z,99237.69
2022-09-15T20:22:49.413Z,99236.91
2022-09-15T20:25:58.590Z,99244.03
2022-09-15T20:29:01.893Z,99243.19
2022-09-15T20:32:03.370Z,99244.84
2022-09-15T20:35:05.228Z,99252.44
2022-09-15T20:38:06.752Z,99252.00
2022-09-15T20:41:09.735Z,99255.88
2022-09-15T20:44:11.741Z,99255.88
2022-09-15T20:47:13.184Z,99255.47
2022-09-15T20:50:17.041Z,99251.81
2022-09-15T20:53:18.521Z,99250.22
2022-09-15T20:56:24.686Z,99255.50
2022-09-15T20:59:26.117Z,99256.34
2022-09-15T21:02:27.893Z,99256.31
2022-09-15T21:05:29.321Z,99260.38
2022-09-15T21:08:30.868Z,99253.28
2022-09-15T21:11:32.326Z,99255.53
2022-09-15T21:14:33.725Z,99261.22
2022-09-15T21:17:35.990Z,99266.72
2022-09-15T21:20:37.495Z,99256.31
2022-09-15T21:24:06.195Z,99267.31
2022-09-15T21:27:26.050Z,99265.88
2022-09-15T21:30:27.511Z,99270.16
2022-09-15T21:33:29.305Z,99264.84
2022-09-15T21:36:31.583Z,99270.56
2022-09-15T21:39:33.004Z,99273.22
2022-09-15T21:42:34.587Z,99274.81
2022-09-15T21:45:37.056Z,99272.19
2022-09-15T21:48:39.255Z,99274.78
2022-09-15T21:51:40.715Z,99275.44
2022-09-15T21:54:43.326Z,99275.44
2022-09-15T21:57:44.734Z,99275.88
2022-09-15T22:00:47.493Z,99270.38
2022-09-15T22:03:54.072Z,99274.25
2022-09-15T22:06:55.517Z,99273.03
2022-09-15T22:09:56.942Z,99272.59
2022-09-15T22:12:58.413Z,99274.44
2022-09-15T22:16:04.401Z,99273.81
2022-09-15T22:19:07.143Z,99272.81
2022-09-15T22:22:08.801Z,99275.03
2022-09-15T22:25:11.040Z,99288.06
2022-09-15T22:28:12.473Z,99280.31
2022-09-15T22:31:16.081Z,99286.44
2022-09-15T22:34:17.632Z,99283.56
2022-09-15T22:37:19.434Z,99280.31
2022-09-15T22:40:20.933Z,99286.84
2022-09-15T22:43:23.250Z,99283.19
2022-09-15T22:46:25.009Z,99286.41
2022-09-15T22:49:27.424Z,99289.28
2022-09-15T22:52:28.841Z,99283.53
2022-09-15T22:55:31.468Z,99291.47
2022-09-15T22:58:37.315Z,99290.84
2022-09-15T23:01:38.857Z,99280.84
2022-09-15T23:04:40.318Z,99280.63
2022-09-15T23:07:41.721Z,99275.38
2022-09-15T23:10:43.139Z,99275.56
2022-09-15T23:13:44.623Z,99269.47
2022-09-15T23:16:46.109Z,99275.72
2022-09-15T23:19:47.566Z,99271.31
2022-09-15T23:22:49.105Z,99268.69
2022-09-15T23:25:50.999Z,99268.47
2022-09-15T23:28:52.944Z,99274.16
2022-09-15T23:31:54.745Z,99281.91
2022-09-15T23:34:56.484Z,99275.81
2022-09-15T23:37:59.033Z,99283.31
2022-09-15T23:41:00.469Z,99290.00
2022-09-15T23:44:02.952Z,99284.09
2022-09-15T23:47:04.496Z,99292.03
2022-09-15T23:50:06.205Z,99287.56
2022-09-15T23:53:07.995Z,99292.03
2022-09-15T23:56:09.391Z,99285.31
2022-09-15T23:59:10.799Z,99281.19
